Aeroporto :
LOGIN :

Iscrizione | Disclaimer

   EN    FR    IT 

 










Sommario :    VFR   VFR Marginale   IFR   IFR Intensivo   IFR Molto Intensivo
Visibilità : 
Base nubi : 
>= 8 km
>= 3000ft
5 / 8 km
1000 / 3000 ft
1500m / 5 km
500 / 1000 ft
800 / 1500m
200 / 500 ft
< 800m
< 200 ft
Simboli :   Temporali  Nebbia  Neve Forte  Precipitazioni Forti  Vento > 20 kt
SIGMETs :   Varie  Temporali  Ghiacco  Turbolenza  Onda orograficha  Ceneri Vulcaniche






- Altitudine del aeroporto : 100 ft


EBDT - Schaffen

ULTIMO METAR :
  • 172155Z AUTO 16005KT 9999 FEW060/// SCT110/// BKN120/// 11/11 Q1009 BLU

METARs OBSOLETI :
  • 172125Z AUTO 17005KT 9999 FEW090/// OVC100/// 12/11 Q1009 BLU
  • 172055Z AUTO 18006KT 9999 FEW085/// BKN100/// OVC110/// 12/11 Q1009 BLU
  • 172025Z AUTO 19006KT 9999 FEW017/// BKN095/// OVC110/// 12/12 Q1009 BLU
  • 172007Z AUTO 19008KT 9999 FEW017/// SCT021/// BKN095/// 12/12 Q1009 WHT
  • 171955Z AUTO 18005KT 9999 FEW018/// BKN090/// OVC110/// 12/11 Q1009 BLU
  • 171925Z AUTO 19004KT 9999 FEW021/// SCT034/// BKN095/// 12/12 Q1009 BLU

Previsioni scadute.



MetMap, La meteo Aeronautica in un colpo d'occhio ! - Copyright ORBIFLY Dicembre 2007 - Disclaimer

ORBIFLY MET'MAP TEAM :

Programmazione e sviluppo : Alexandra Zaïnal
Concezione e sviluppo : Baudouin d'Aumeries
Co-Programmazione e sviluppo : Marc-Olivier Méhu
Supporto tecnico e logistico : Manuel Goepfert
Aiuto per la traduzione : Arnaldo La Scala

Contatto : metmap@orbifly.com




FONTI E CREDITI :

   NOAA